Time;durP1;ratioP1;P1;durP2;ratioP2;P2;SDS_P1;SDS_P2;PMS_P1;PMS_P2;Temp;Humidity;BMP_temperature;BMP_pressure;BME280_temperature;BME280_humidity;BME280_pressure;Samples;Min_cycle;Max_cycle;Signal;HPM_P1;HPM_P2
2023/09/19 00:00:33;;;;;;;1.30;1.20;;;17.70;99.90;;;;;;4991969;28;20916;-65
2023/09/19 00:03:00;;;;;;;1.13;1.03;;;17.70;99.90;;;;;;4991327;28;20448;-65
2023/09/19 00:05:29;;;;;;;2.60;2.40;;;17.70;99.90;;;;;;4991646;28;20479;-65
2023/09/19 00:07:59;;;;;;;0.83;0.83;;;17.70;99.90;;;;;;4991894;28;20480;-65
2023/09/19 00:10:26;;;;;;;0.90;0.90;;;17.70;99.90;;;;;;4991877;28;20448;-65
2023/09/19 00:12:55;;;;;;;0.93;0.83;;;17.70;99.90;;;;;;4991625;28;20548;-65
2023/09/19 00:15:22;;;;;;;5.10;1.50;;;17.70;99.90;;;;;;4991831;28;20544;-65
2023/09/19 00:17:52;;;;;;;0.70;0.70;;;17.60;99.90;;;;;;4991628;28;20558;-65
2023/09/19 00:20:19;;;;;;;1.30;1.00;;;17.60;99.90;;;;;;4991879;28;20529;-65
2023/09/19 00:22:47;;;;;;;2.10;1.10;;;17.60;99.90;;;;;;4991674;28;20454;-65
2023/09/19 00:25:15;;;;;;;0.83;0.83;;;17.70;99.90;;;;;;4991894;28;20552;-65
2023/09/19 00:27:43;;;;;;;3.50;1.27;;;17.60;99.90;;;;;;4991571;28;20473;-65
2023/09/19 00:30:14;;;;;;;1.30;0.97;;;17.60;99.90;;;;;;4991672;28;20544;-65
2023/09/19 00:32:41;;;;;;;1.07;0.97;;;17.60;99.90;;;;;;4991292;28;20460;-65
2023/09/19 00:35:10;;;;;;;1.00;0.90;;;17.60;99.90;;;;;;4991547;28;20540;-65
2023/09/19 00:37:37;;;;;;;1.40;1.00;;;17.60;99.90;;;;;;4991469;28;21015;-65
2023/09/19 00:40:06;;;;;;;1.20;1.00;;;17.60;99.90;;;;;;4991265;28;20587;-65
2023/09/19 00:42:34;;;;;;;1.53;0.90;;;17.60;99.90;;;;;;4989983;28;20521;-65
2023/09/19 00:45:03;;;;;;;0.93;0.80;;;17.60;99.90;;;;;;4989432;28;20457;-65
2023/09/19 00:47:30;;;;;;;2.10;0.90;;;17.50;99.90;;;;;;5016756;23;20907;-64
2023/09/19 00:49:58;;;;;;;2.53;1.10;;;17.60;99.90;;;;;;5008782;28;20437;-65
2023/09/19 00:52:25;;;;;;;1.73;1.00;;;17.60;99.90;;;;;;5008960;28;20445;-65
2023/09/19 00:54:52;;;;;;;1.13;0.73;;;17.60;99.90;;;;;;5009420;28;20445;-65
2023/09/19 00:57:22;;;;;;;1.27;0.90;;;17.60;99.90;;;;;;5015027;28;20473;-65
2023/09/19 00:59:51;;;;;;;0.93;0.93;;;17.60;99.90;;;;;;5030576;28;21008;-65
2023/09/19 01:02:18;;;;;;;2.00;1.40;;;17.60;99.90;;;;;;5030386;28;21225;-64
2023/09/19 01:04:46;;;;;;;2.00;1.50;;;17.60;99.90;;;;;;5032938;28;20454;-66
2023/09/19 01:07:14;;;;;;;1.47;1.37;;;17.60;99.90;;;;;;5032924;28;21013;-62
2023/09/19 01:09:42;;;;;;;0.90;0.90;;;17.60;99.90;;;;;;5033078;28;20444;-65
2023/09/19 01:12:10;;;;;;;1.97;1.10;;;17.50;99.90;;;;;;5032835;28;20868;-64
2023/09/19 01:14:47;;;;;;;1.67;1.57;;;17.60;99.90;;;;;;5032986;28;20462;-65
2023/09/19 01:17:22;;;;;;;2.27;2.07;;;17.60;99.90;;;;;;5033325;28;20558;-65
2023/09/19 01:20:11;;;;;;;1.63;1.30;;;17.50;99.90;;;;;;5034545;28;20485;-65
2023/09/19 01:22:49;;;;;;;1.80;1.17;;;17.50;99.90;;;;;;5033894;28;20436;-65
2023/09/19 01:25:44;;;;;;;1.50;1.40;;;17.50;99.90;;;;;;5034489;28;20451;-65
2023/09/19 01:28:30;;;;;;;2.87;1.00;;;17.50;99.90;;;;;;5034339;28;20460;-65
2023/09/19 01:31:03;;;;;;;1.63;1.13;;;17.50;99.90;;;;;;5034010;28;20432;-65
2023/09/19 01:33:50;;;;;;;1.90;1.00;;;17.50;99.90;;;;;;5034109;28;20805;-64
2023/09/19 01:36:17;;;;;;;1.17;1.07;;;17.40;99.90;;;;;;5034114;28;20513;-65
2023/09/19 01:38:44;;;;;;;1.70;1.20;;;17.40;99.90;;;;;;5034043;28;20546;-65
2023/09/19 01:41:19;;;;;;;1.23;0.97;;;17.40;99.90;;;;;;5033996;28;20483;-65
2023/09/19 01:43:50;;;;;;;1.43;1.33;;;17.40;99.90;;;;;;5034018;28;20451;-65
2023/09/19 01:46:25;;;;;;;2.97;1.10;;;17.40;99.90;;;;;;5034173;28;20502;-65
2023/09/19 01:49:03;;;;;;;1.50;1.40;;;17.40;99.90;;;;;;5033915;28;20592;-65
2023/09/19 01:51:35;;;;;;;1.77;1.67;;;17.40;99.90;;;;;;5033879;28;21157;-64
2023/09/19 01:54:06;;;;;;;1.40;1.30;;;17.30;99.90;;;;;;5033817;28;20534;-65
2023/09/19 01:56:39;;;;;;;0.87;0.87;;;17.30;99.90;;;;;;5034042;28;20522;-65
2023/09/19 01:59:11;;;;;;;1.87;1.10;;;17.30;99.90;;;;;;5033664;28;20551;-65
2023/09/19 02:01:40;;;;;;;1.50;1.30;;;17.30;99.90;;;;;;5033822;28;20525;-65
2023/09/19 02:04:08;;;;;;;1.43;1.33;;;17.30;99.90;;;;;;5033319;28;21004;-65
2023/09/19 02:06:35;;;;;;;1.23;1.13;;;17.40;99.90;;;;;;5033820;28;20827;-65
2023/09/19 02:09:02;;;;;;;1.50;1.40;;;17.40;99.90;;;;;;5033697;28;20463;-65
2023/09/19 02:11:29;;;;;;;1.37;1.27;;;17.40;99.90;;;;;;5033503;28;20445;-64
2023/09/19 02:13:56;;;;;;;1.60;1.50;;;17.40;99.90;;;;;;5032038;28;20459;-64
2023/09/19 02:16:23;;;;;;;1.47;1.23;;;17.40;99.90;;;;;;5033470;28;20974;-65
2023/09/19 02:18:51;;;;;;;1.60;1.50;;;17.40;99.90;;;;;;5033283;28;20471;-65
2023/09/19 02:21:18;;;;;;;1.60;1.50;;;17.40;99.90;;;;;;5033526;28;20525;-65
2023/09/19 02:23:47;;;;;;;1.77;1.67;;;17.40;99.90;;;;;;5033167;28;20448;-64
2023/09/19 02:26:14;;;;;;;1.43;1.30;;;17.40;99.90;;;;;;5033400;28;20456;-64
2023/09/19 02:28:40;;;;;;;1.77;1.67;;;17.40;99.90;;;;;;5033199;28;20849;-65
2023/09/19 02:31:07;;;;;;;1.60;1.50;;;17.40;99.90;;;;;;5033103;28;20450;-65
2023/09/19 02:33:35;;;;;;;1.90;1.80;;;17.40;99.90;;;;;;5033099;28;20452;-65
2023/09/19 02:36:05;;;;;;;4.27;1.63;;;17.40;99.90;;;;;;5033238;28;20538;-65
2023/09/19 02:38:32;;;;;;;1.87;1.77;;;17.40;99.90;;;;;;5032966;28;20474;-64
2023/09/19 02:40:59;;;;;;;1.87;1.77;;;17.40;99.90;;;;;;5033014;28;20524;-65
2023/09/19 02:43:26;;;;;;;2.07;1.87;;;17.40;99.90;;;;;;5032636;28;20837;-65
2023/09/19 02:45:54;;;;;;;1.97;1.87;;;17.50;99.90;;;;;;5032781;28;20573;-65
2023/09/19 02:48:21;;;;;;;1.63;1.53;;;17.40;99.90;;;;;;5032025;28;20475;-65
2023/09/19 02:50:51;;;;;;;2.23;1.80;;;17.40;99.90;;;;;;5032901;28;20875;-64
2023/09/19 02:53:19;;;;;;;3.60;1.90;;;17.50;99.90;;;;;;5032568;28;20452;-65
2023/09/19 02:55:48;;;;;;;2.70;1.90;;;17.50;99.90;;;;;;5032654;28;20451;-64
2023/09/19 02:58:15;;;;;;;2.63;2.00;;;17.50;99.90;;;;;;5032382;28;20468;-65
2023/09/19 03:00:42;;;;;;;5.80;4.03;;;17.50;99.90;;;;;;5032721;28;20908;-65
2023/09/19 03:03:09;;;;;;;2.00;1.80;;;17.50;99.90;;;;;;5031902;28;21025;-64
2023/09/19 03:05:38;;;;;;;2.53;2.30;;;17.40;99.90;;;;;;5032506;28;20517;-64
2023/09/19 03:08:06;;;;;;;2.47;2.27;;;17.40;99.90;;;;;;5032268;28;20472;-64
2023/09/19 03:10:37;;;;;;;2.83;2.20;;;17.40;99.90;;;;;;5032363;28;20914;-64
2023/09/19 03:13:04;;;;;;;3.40;2.33;;;17.40;99.90;;;;;;5031749;28;20452;-64
2023/09/19 03:15:31;;;;;;;2.03;1.93;;;17.30;99.90;;;;;;5032264;28;20451;-64
2023/09/19 03:17:59;;;;;;;3.13;2.87;;;17.30;99.90;;;;;;5030913;28;20459;-64
2023/09/19 03:20:27;;;;;;;2.67;2.47;;;17.30;99.90;;;;;;5032029;28;20482;-63
2023/09/19 03:22:54;;;;;;;2.50;2.10;;;17.20;99.90;;;;;;5031835;28;20464;-64
2023/09/19 03:25:22;;;;;;;2.50;2.30;;;17.20;99.90;;;;;;5031754;28;21019;-63
2023/09/19 03:27:51;;;;;;;2.20;2.10;;;17.20;99.90;;;;;;5032235;28;20482;-64
2023/09/19 03:30:17;;;;;;;2.40;2.23;;;17.10;99.90;;;;;;5032208;28;20482;-64
2023/09/19 03:32:46;;;;;;;3.17;2.87;;;17.10;99.90;;;;;;5031803;28;20697;-63
2023/09/19 03:35:14;;;;;;;3.73;3.53;;;17.20;99.90;;;;;;5032103;28;20529;-64
2023/09/19 03:37:41;;;;;;;3.50;3.20;;;17.10;99.90;;;;;;5031871;28;20478;-64
2023/09/19 03:40:10;;;;;;;2.70;2.50;;;17.10;99.90;;;;;;5031737;28;20491;-63
2023/09/19 03:42:39;;;;;;;2.93;2.73;;;17.20;99.90;;;;;;5031623;28;20447;-63
2023/09/19 03:45:11;;;;;;;3.27;3.07;;;17.20;99.90;;;;;;5031947;28;20537;-63
2023/09/19 03:47:39;;;;;;;4.07;3.77;;;17.20;99.90;;;;;;5031646;28;20489;-62
2023/09/19 03:50:07;;;;;;;2.90;2.70;;;17.20;99.90;;;;;;5031702;28;20530;-63
2023/09/19 03:52:33;;;;;;;4.93;3.00;;;17.10;99.90;;;;;;5031300;28;20449;-63
2023/09/19 03:55:01;;;;;;;3.10;2.97;;;17.10;99.90;;;;;;5031834;28;20447;-63
2023/09/19 03:57:28;;;;;;;3.90;3.70;;;17.20;99.90;;;;;;5031648;28;20937;-63
2023/09/19 03:59:55;;;;;;;4.43;4.03;;;17.10;99.90;;;;;;5031514;28;20456;-63
2023/09/19 04:02:24;;;;;;;3.57;3.37;;;17.10;99.90;;;;;;5031367;28;20450;-63
2023/09/19 04:04:51;;;;;;;3.43;3.13;;;17.10;99.90;;;;;;5031459;28;20509;-62
2023/09/19 04:07:18;;;;;;;4.20;3.83;;;17.10;99.90;;;;;;5031254;28;20842;-63
2023/09/19 04:09:45;;;;;;;3.87;3.57;;;17.10;99.90;;;;;;5031560;28;20450;-63
2023/09/19 04:12:12;;;;;;;3.90;3.10;;;17.00;99.90;;;;;;5031197;28;20928;-63
2023/09/19 04:14:39;;;;;;;4.20;3.90;;;17.10;99.90;;;;;;5031254;28;20826;-63
2023/09/19 04:17:06;;;;;;;3.77;3.50;;;17.00;99.90;;;;;;5031186;28;20447;-63
2023/09/19 04:19:34;;;;;;;3.30;3.03;;;17.00;99.90;;;;;;5031235;28;20457;-63
2023/09/19 04:22:01;;;;;;;5.43;3.67;;;17.00;99.90;;;;;;5031297;28;20487;-62
2023/09/19 04:24:28;;;;;;;3.40;3.20;;;17.00;99.90;;;;;;5030948;28;20457;-63
2023/09/19 04:26:55;;;;;;;3.27;2.97;;;17.00;99.90;;;;;;5031039;28;20448;-63
2023/09/19 04:29:21;;;;;;;3.10;3.00;;;17.00;99.90;;;;;;5031233;28;20559;-63
2023/09/19 04:31:48;;;;;;;3.90;3.60;;;17.00;99.90;;;;;;5031207;28;20462;-62
2023/09/19 04:34:17;;;;;;;2.90;2.80;;;16.90;99.90;;;;;;5030798;28;20539;-63
2023/09/19 04:36:45;;;;;;;4.10;3.77;;;16.90;99.90;;;;;;5032689;28;20820;-62
2023/09/19 04:39:13;;;;;;;4.23;3.93;;;16.90;99.90;;;;;;5035412;28;20917;-63
2023/09/19 04:41:41;;;;;;;3.40;2.87;;;16.80;99.90;;;;;;5035079;28;20491;-63
2023/09/19 04:44:08;;;;;;;3.43;3.23;;;16.80;99.90;;;;;;5034925;28;20486;-63
2023/09/19 04:46:35;;;;;;;3.13;2.90;;;16.80;99.90;;;;;;5034429;28;20534;-62
2023/09/19 04:49:02;;;;;;;4.27;2.40;;;16.80;99.90;;;;;;5034689;28;20474;-62
2023/09/19 04:51:34;;;;;;;5.70;3.40;;;16.70;99.90;;;;;;5035193;28;20441;-63
2023/09/19 04:54:02;;;;;;;4.10;2.80;;;16.70;99.90;;;;;;5034859;28;20488;-63
2023/09/19 04:56:29;;;;;;;3.67;3.37;;;16.70;99.90;;;;;;5034894;28;20477;-63
2023/09/19 04:58:58;;;;;;;3.43;2.83;;;16.60;99.90;;;;;;5034790;28;20470;-63
2023/09/19 05:01:25;;;;;;;3.73;3.43;;;16.60;99.90;;;;;;5034597;28;20510;-63
2023/09/19 05:03:52;;;;;;;3.17;2.97;;;16.50;99.90;;;;;;5034549;28;20536;-63
2023/09/19 05:06:20;;;;;;;3.67;3.43;;;16.50;99.90;;;;;;5034800;28;20543;-63
2023/09/19 05:08:50;;;;;;;4.27;3.80;;;16.50;99.90;;;;;;5034693;28;20474;-63
2023/09/19 05:11:19;;;;;;;3.63;3.33;;;16.50;99.90;;;;;;5034858;28;20468;-64
2023/09/19 05:13:45;;;;;;;3.60;3.30;;;16.50;99.90;;;;;;5030582;28;20463;-63
2023/09/19 05:16:12;;;;;;;2.97;2.87;;;16.50;99.90;;;;;;5034067;28;20454;-63
2023/09/19 05:18:39;;;;;;;3.63;3.27;;;16.50;99.90;;;;;;5027877;28;20236;-63
2023/09/19 05:21:06;;;;;;;3.30;2.83;;;16.50;99.90;;;;;;5031146;28;20480;-62
2023/09/19 05:23:33;;;;;;;3.50;3.00;;;16.50;99.90;;;;;;5022389;28;21035;-63
2023/09/19 05:26:00;;;;;;;3.60;3.40;;;16.50;99.90;;;;;;5014539;28;20456;-63
2023/09/19 05:28:29;;;;;;;4.00;2.87;;;16.40;99.90;;;;;;5014436;28;20476;-63
2023/09/19 05:30:56;;;;;;;4.17;2.93;;;16.40;99.90;;;;;;5014502;28;20976;-63
2023/09/19 05:33:23;;;;;;;3.17;2.87;;;16.40;99.90;;;;;;5014366;28;20533;-64
2023/09/19 05:35:50;;;;;;;3.30;3.00;;;16.40;99.90;;;;;;5014575;28;20550;-62
2023/09/19 05:38:18;;;;;;;3.03;2.83;;;16.40;99.90;;;;;;5014448;28;20481;-64
2023/09/19 05:40:46;;;;;;;3.53;3.23;;;16.40;99.90;;;;;;5014271;28;20482;-63
2023/09/19 05:43:14;;;;;;;3.33;3.13;;;16.40;99.90;;;;;;5013966;28;20461;-63
2023/09/19 05:45:42;;;;;;;4.17;3.00;;;16.40;99.90;;;;;;5014418;28;20460;-64
2023/09/19 05:48:11;;;;;;;4.20;2.63;;;16.40;99.90;;;;;;5013780;28;20486;-63
2023/09/19 05:50:38;;;;;;;3.87;3.10;;;16.50;99.90;;;;;;5014156;28;20949;-64
2023/09/19 05:53:05;;;;;;;3.47;3.20;;;16.50;99.90;;;;;;5013756;28;20458;-63
2023/09/19 05:55:32;;;;;;;3.50;2.87;;;16.50;99.90;;;;;;5013952;28;20454;-64
2023/09/19 05:57:59;;;;;;;3.30;3.00;;;16.50;99.90;;;;;;5013901;28;20550;-63
2023/09/19 06:00:27;;;;;;;3.53;2.47;;;16.50;99.90;;;;;;5013892;28;20983;-63
2023/09/19 06:02:57;;;;;;;3.13;2.93;;;16.50;99.90;;;;;;5013639;28;20459;-63
2023/09/19 06:05:26;;;;;;;2.93;2.80;;;16.60;99.90;;;;;;5014000;28;20455;-63
2023/09/19 06:07:53;;;;;;;3.60;3.30;;;16.60;99.90;;;;;;5013710;28;20505;-63
2023/09/19 06:10:22;;;;;;;3.30;3.10;;;16.70;99.90;;;;;;5014015;28;20534;-64
2023/09/19 06:12:49;;;;;;;3.30;3.10;;;16.70;99.90;;;;;;5013673;28;20449;-63
2023/09/19 06:15:18;;;;;;;3.00;2.90;;;16.70;99.90;;;;;;5013824;28;20550;-64
2023/09/19 06:17:48;;;;;;;3.97;3.67;;;16.80;99.90;;;;;;5013636;28;20482;-63
2023/09/19 06:20:17;;;;;;;3.63;3.33;;;16.80;99.90;;;;;;5013646;28;20456;-63
2023/09/19 06:22:46;;;;;;;3.40;3.17;;;16.80;99.90;;;;;;5013109;28;20488;-63
2023/09/19 06:25:15;;;;;;;3.57;3.27;;;16.90;99.90;;;;;;5013645;28;20444;-63
2023/09/19 06:27:44;;;;;;;3.30;2.87;;;16.90;99.90;;;;;;5013510;28;20472;-64
2023/09/19 06:30:12;;;;;;;3.80;3.57;;;16.90;99.90;;;;;;5013529;28;20455;-64
2023/09/19 06:32:39;;;;;;;3.40;3.20;;;17.00;99.90;;;;;;5013138;28;20853;-64
2023/09/19 06:35:10;;;;;;;3.67;3.43;;;17.00;99.90;;;;;;5013222;28;20448;-63
2023/09/19 06:37:39;;;;;;;3.70;3.40;;;17.00;99.90;;;;;;5013159;28;20471;-64
2023/09/19 06:40:13;;;;;;;3.20;3.00;;;17.00;99.90;;;;;;5013135;28;20456;-64
2023/09/19 06:42:40;;;;;;;3.93;3.63;;;17.10;99.90;;;;;;5012924;28;20494;-64
2023/09/19 06:45:11;;;;;;;3.83;3.40;;;17.00;99.90;;;;;;5013138;28;20483;-64
2023/09/19 06:47:37;;;;;;;3.50;3.30;;;17.00;99.90;;;;;;5012827;28;20480;-63
2023/09/19 06:50:05;;;;;;;4.60;4.20;;;17.10;99.90;;;;;;5013289;28;20463;-64
2023/09/19 06:52:33;;;;;;;3.93;3.63;;;17.10;99.90;;;;;;5012713;28;20946;-64
2023/09/19 06:55:03;;;;;;;5.03;4.07;;;17.10;99.90;;;;;;5022726;23;20512;-62
2023/09/19 06:57:30;;;;;;;5.10;4.63;;;17.10;99.90;;;;;;4993074;28;20447;-62
2023/09/19 06:59:57;;;;;;;3.77;3.17;;;17.20;99.90;;;;;;4992598;28;20452;-62
2023/09/19 07:02:24;;;;;;;5.70;4.80;;;17.20;99.90;;;;;;4993164;28;20484;-62
2023/09/19 07:04:51;;;;;;;4.27;3.83;;;17.20;99.90;;;;;;4993229;28;20478;-62
2023/09/19 07:07:17;;;;;;;3.73;3.40;;;17.30;99.90;;;;;;4993291;28;20459;-62
2023/09/19 07:09:44;;;;;;;4.80;4.50;;;17.30;99.90;;;;;;4993091;28;20461;-62
2023/09/19 07:12:14;;;;;;;3.60;3.40;;;17.40;99.90;;;;;;4992962;28;20891;-62
2023/09/19 07:14:41;;;;;;;4.40;3.47;;;17.40;99.90;;;;;;4992558;28;20564;-62
2023/09/19 07:17:08;;;;;;;4.30;4.00;;;17.50;99.90;;;;;;4993067;28;20477;-62
2023/09/19 07:19:35;;;;;;;5.70;3.73;;;17.50;99.90;;;;;;4993023;28;20457;-62
2023/09/19 07:22:02;;;;;;;4.67;3.23;;;17.60;99.90;;;;;;4992693;28;20490;-62
2023/09/19 07:24:30;;;;;;;3.80;3.33;;;17.70;99.90;;;;;;4992529;28;20480;-62
2023/09/19 07:26:57;;;;;;;3.80;3.60;;;17.70;99.90;;;;;;4982163;28;20508;-63
2023/09/19 07:29:26;;;;;;;3.50;3.20;;;17.80;99.90;;;;;;4990302;28;21028;-62
2023/09/19 07:31:52;;;;;;;3.77;3.40;;;17.80;99.90;;;;;;4991432;28;20446;-62
2023/09/19 07:34:20;;;;;;;5.53;3.97;;;17.90;99.90;;;;;;4992238;28;21047;-63
2023/09/19 07:36:47;;;;;;;4.17;3.87;;;18.00;99.90;;;;;;4992723;28;20493;-63
2023/09/19 07:39:14;;;;;;;8.77;3.80;;;18.00;99.90;;;;;;4992557;28;20536;-62
2023/09/19 07:41:41;;;;;;;7.53;3.70;;;18.10;99.90;;;;;;4992386;28;20507;-62
2023/09/19 07:44:08;;;;;;;3.37;2.97;;;18.10;99.90;;;;;;4992363;28;20874;-62
2023/09/19 07:46:37;;;;;;;5.83;3.20;;;18.10;99.90;;;;;;4992492;28;20441;-63
2023/09/19 07:49:04;;;;;;;2.93;2.73;;;18.10;99.90;;;;;;4992391;28;20458;-63
2023/09/19 07:51:32;;;;;;;3.17;2.93;;;18.20;99.90;;;;;;4992211;28;20549;-62
2023/09/19 07:53:59;;;;;;;4.93;4.53;;;18.20;99.90;;;;;;4991529;28;20493;-63
2023/09/19 07:56:27;;;;;;;3.87;3.43;;;18.20;99.90;;;;;;4992258;28;20521;-62
2023/09/19 07:58:54;;;;;;;4.40;3.10;;;18.20;99.90;;;;;;4992278;28;20576;-62
2023/09/19 08:01:23;;;;;;;6.20;3.47;;;18.10;99.90;;;;;;4991826;28;20922;-62
2023/09/19 08:03:51;;;;;;;4.10;3.90;;;18.10;99.90;;;;;;4991936;28;20980;-62
2023/09/19 08:06:19;;;;;;;3.30;3.10;;;18.10;99.90;;;;;;4991500;28;20971;-63
2023/09/19 08:08:45;;;;;;;3.83;3.10;;;18.20;99.90;;;;;;4990195;28;20464;-63
2023/09/19 08:11:12;;;;;;;4.57;3.57;;;18.10;99.90;;;;;;4991677;28;20453;-63
2023/09/19 08:13:43;;;;;;;4.60;3.50;;;18.10;99.90;;;;;;4991353;28;20507;-63
2023/09/19 08:16:11;;;;;;;3.83;2.83;;;18.10;99.90;;;;;;4991888;28;20534;-63
2023/09/19 08:18:39;;;;;;;3.63;3.33;;;18.10;99.90;;;;;;4991664;28;20445;-62
2023/09/19 08:21:10;;;;;;;3.40;3.03;;;18.10;99.90;;;;;;4991447;28;20494;-63
2023/09/19 08:23:38;;;;;;;7.27;3.83;;;18.10;99.90;;;;;;4991506;28;20457;-62
2023/09/19 08:26:07;;;;;;;6.00;3.60;;;18.20;99.90;;;;;;4991820;28;20541;-64
2023/09/19 08:28:34;;;;;;;3.60;3.23;;;18.10;99.90;;;;;;4991404;28;20472;-64
2023/09/19 08:31:05;;;;;;;3.47;3.20;;;18.10;99.90;;;;;;4991545;28;20464;-64
2023/09/19 08:33:33;;;;;;;3.80;3.10;;;18.10;99.90;;;;;;4991074;28;20454;-64
2023/09/19 08:36:00;;;;;;;4.67;3.57;;;18.20;99.90;;;;;;4991088;28;20454;-64
2023/09/19 08:38:29;;;;;;;2.83;2.63;;;18.20;99.90;;;;;;4991122;28;20446;-64
2023/09/19 08:40:59;;;;;;;3.93;3.53;;;18.30;99.90;;;;;;4991160;28;20936;-65
2023/09/19 08:43:26;;;;;;;3.33;3.07;;;18.30;99.90;;;;;;4990927;28;20483;-64
2023/09/19 08:45:58;;;;;;;5.13;2.57;;;18.40;99.90;;;;;;4991384;28;21038;-65
2023/09/19 08:48:28;;;;;;;3.67;2.63;;;18.40;99.90;;;;;;4990336;28;20956;-65
2023/09/19 08:50:58;;;;;;;3.30;3.00;;;18.50;99.90;;;;;;4991204;28;20508;-65
2023/09/19 08:53:48;;;;;;;2.70;2.27;;;18.50;99.90;;;;;;4991090;28;20820;-64
2023/09/19 08:56:19;;;;;;;4.23;3.70;;;18.50;99.90;;;;;;4991435;28;20442;-64
2023/09/19 08:58:53;;;;;;;3.27;2.97;;;18.60;99.90;;;;;;4990560;28;20449;-64
2023/09/19 09:01:24;;;;;;;2.90;2.33;;;18.60;99.90;;;;;;4990661;28;20465;-65
2023/09/19 09:03:53;;;;;;;2.70;2.30;;;18.60;99.90;;;;;;4990664;28;20987;-64
2023/09/19 09:06:21;;;;;;;2.60;2.40;;;18.60;99.90;;;;;;4990670;28;20450;-64
2023/09/19 09:08:49;;;;;;;2.30;1.93;;;18.60;99.90;;;;;;4990767;28;20457;-64
2023/09/19 09:11:17;;;;;;;2.97;2.33;;;18.60;99.90;;;;;;4990550;28;20465;-65
2023/09/19 09:13:45;;;;;;;3.53;2.27;;;18.60;99.90;;;;;;4990358;28;20454;-65
2023/09/19 09:16:13;;;;;;;2.40;2.30;;;18.70;99.90;;;;;;4990642;28;20461;-65
2023/09/19 09:18:40;;;;;;;3.33;2.27;;;18.70;99.90;;;;;;4990890;28;20489;-64
2023/09/19 09:21:07;;;;;;;2.03;1.80;;;18.70;99.90;;;;;;4990674;28;20451;-64
2023/09/19 09:23:34;;;;;;;2.43;2.23;;;18.80;99.90;;;;;;4992689;28;20490;-64
2023/09/19 09:26:05;;;;;;;5.03;2.47;;;18.90;99.90;;;;;;4994533;28;20909;-64
2023/09/19 09:28:33;;;;;;;2.87;2.63;;;19.00;99.90;;;;;;4994303;28;20461;-64
2023/09/19 09:31:02;;;;;;;4.10;2.20;;;19.10;99.90;;;;;;4994176;28;20446;-64
2023/09/19 09:33:29;;;;;;;2.77;2.20;;;19.20;99.90;;;;;;4993843;28;20885;-65
2023/09/19 09:35:58;;;;;;;2.70;2.10;;;19.30;99.90;;;;;;4994099;28;20474;-65
2023/09/19 09:38:27;;;;;;;2.30;2.00;;;19.40;99.90;;;;;;4993707;28;20450;-65
2023/09/19 09:41:01;;;;;;;2.37;2.17;;;19.50;99.90;;;;;;4994174;28;20472;-65
2023/09/19 09:43:38;;;;;;;2.60;1.87;;;19.50;99.90;;;;;;4993280;28;20489;-65
2023/09/19 09:49:19;;;;;;;3.63;2.50;;;19.60;99.90;;;;;;4974240;28;20439;-64
2023/09/19 09:51:57;;;;;;;5.17;3.10;;;19.60;99.90;;;;;;4980532;28;20662;-65
2023/09/19 09:54:27;;;;;;;9.80;3.23;;;19.60;99.90;;;;;;4973845;28;20486;-65
2023/09/19 09:56:58;;;;;;;2.00;1.80;;;19.60;99.90;;;;;;4974212;28;20531;-65
2023/09/19 09:59:47;;;;;;;2.17;2.07;;;19.60;99.90;;;;;;4974569;28;20452;-65
2023/09/19 10:02:15;;;;;;;2.60;2.20;;;19.70;99.90;;;;;;4974202;28;20495;-65
2023/09/19 10:04:51;;;;;;;3.10;2.50;;;19.80;99.90;;;;;;4974128;28;20467;-64
2023/09/19 10:07:32;;;;;;;3.90;2.77;;;20.00;99.80;;;;;;4974132;28;21180;-65
2023/09/19 10:10:09;;;;;;;5.33;2.70;;;20.00;99.30;;;;;;4974386;28;20908;-64
2023/09/19 10:12:39;;;;;;;3.60;2.20;;;19.90;98.60;;;;;;4974162;28;21564;-64
2023/09/19 10:15:10;;;;;;;2.80;2.57;;;19.90;99.80;;;;;;4974224;28;20463;-65
2023/09/19 10:17:39;;;;;;;2.50;2.30;;;20.00;99.90;;;;;;4980011;28;20541;-65
2023/09/19 10:20:18;;;;;;;2.40;2.30;;;20.10;99.00;;;;;;4992739;28;20459;-64
2023/09/19 10:22:56;;;;;;;1.83;1.67;;;20.20;97.90;;;;;;4993166;28;20496;-65
2023/09/19 10:25:26;;;;;;;3.70;2.80;;;20.20;98.80;;;;;;4993418;28;21223;-65
2023/09/19 10:27:55;;;;;;;3.03;2.57;;;20.30;99.20;;;;;;4993371;28;20881;-64
2023/09/19 10:30:24;;;;;;;5.20;2.77;;;20.30;98.90;;;;;;4992978;28;20502;-65
2023/09/19 10:33:00;;;;;;;2.90;2.30;;;20.50;99.70;;;;;;4992900;28;20526;-65
2023/09/19 10:35:28;;;;;;;3.17;2.87;;;20.50;98.10;;;;;;4992224;28;20561;-65
2023/09/19 10:37:57;;;;;;;4.13;2.47;;;20.60;98.10;;;;;;4993227;28;20456;-65
2023/09/19 10:40:30;;;;;;;3.20;2.90;;;20.60;97.40;;;;;;4992870;28;21124;-65
2023/09/19 10:43:04;;;;;;;2.90;2.13;;;20.60;98.20;;;;;;4992535;28;20546;-65
2023/09/19 10:45:35;;;;;;;3.50;2.70;;;20.70;97.80;;;;;;4992767;28;21008;-65
2023/09/19 10:48:03;;;;;;;2.70;2.50;;;20.70;97.30;;;;;;4992568;28;20451;-65
2023/09/19 10:50:34;;;;;;;2.37;2.17;;;20.70;96.90;;;;;;4986638;28;20452;-65
2023/09/19 10:53:06;;;;;;;2.47;2.27;;;20.70;97.50;;;;;;4983060;28;20441;-65
2023/09/19 10:55:36;;;;;;;4.23;2.50;;;20.80;96.60;;;;;;4986374;28;20483;-64
2023/09/19 10:58:10;;;;;;;2.53;2.20;;;20.80;96.70;;;;;;4991217;28;20451;-64
2023/09/19 11:00:56;;;;;;;4.33;3.93;;;20.80;96.80;;;;;;4979127;28;20443;-65
2023/09/19 11:03:30;;;;;;;3.63;3.43;;;20.90;96.80;;;;;;4992072;28;20593;-65
2023/09/19 11:06:13;;;;;;;6.27;2.70;;;20.80;95.50;;;;;;4976084;28;20514;-65
2023/09/19 11:11:50;;;;;;;2.60;2.20;;;20.80;95.00;;;;;;4982982;28;20439;-64
2023/09/19 11:14:30;;;;;;;3.20;3.10;;;20.90;96.30;;;;;;4975611;28;20456;-64
2023/09/19 11:17:33;;;;;;;2.60;1.70;;;20.90;94.20;;;;;;4983825;28;20519;-65
2023/09/19 11:20:25;;;;;;;2.80;2.50;;;20.90;93.40;;;;;;4988694;28;20534;-65
2023/09/19 11:23:22;;;;;;;4.10;2.47;;;21.00;93.50;;;;;;4986919;28;20487;-65
2023/09/19 11:25:50;;;;;;;3.13;2.03;;;21.10;93.70;;;;;;4975089;28;20478;-64
2023/09/19 11:28:30;;;;;;;3.30;2.63;;;21.10;92.90;;;;;;4972457;28;20444;-65
2023/09/19 11:30:58;;;;;;;2.30;2.10;;;21.20;93.00;;;;;;4980951;28;20448;-65
2023/09/19 11:33:33;;;;;;;3.07;2.53;;;21.30;94.80;;;;;;4979096;28;20951;-65
2023/09/19 11:36:03;;;;;;;2.60;2.40;;;21.40;93.60;;;;;;4984918;28;20448;-64
2023/09/19 11:39:08;;;;;;;2.10;2.00;;;21.50;92.70;;;;;;4979550;28;20447;-65
2023/09/19 11:41:39;;;;;;;2.43;2.23;;;21.50;92.50;;;;;;4972439;28;20445;-65
2023/09/19 11:44:36;;;;;;;2.87;2.67;;;21.60;92.80;;;;;;4987839;28;20497;-65
2023/09/19 11:47:05;;;;;;;3.37;2.63;;;21.70;92.60;;;;;;4981300;28;20449;-65
2023/09/19 11:49:34;;;;;;;3.50;2.80;;;21.80;93.20;;;;;;4987788;28;20457;-65
2023/09/19 11:52:05;;;;;;;5.70;2.27;;;21.80;92.60;;;;;;4975492;28;20990;-65
2023/09/19 11:54:33;;;;;;;2.43;2.33;;;21.90;92.80;;;;;;4980448;28;20477;-65
2023/09/19 11:57:01;;;;;;;2.37;2.20;;;21.90;92.40;;;;;;4981014;28;20531;-65
2023/09/19 11:59:29;;;;;;;3.53;2.50;;;21.80;92.60;;;;;;4978637;28;20536;-65
2023/09/19 12:01:58;;;;;;;4.03;2.80;;;21.80;92.90;;;;;;4988106;28;20447;-65
2023/09/19 12:04:43;;;;;;;3.00;2.63;;;21.80;93.00;;;;;;4986724;28;21014;-65
2023/09/19 12:07:15;;;;;;;2.30;2.10;;;21.90;92.50;;;;;;4982243;28;20453;-65
2023/09/19 12:09:43;;;;;;;2.90;2.30;;;22.00;91.10;;;;;;4976699;28;20456;-65
2023/09/19 12:12:13;;;;;;;2.57;2.37;;;22.10;88.60;;;;;;4989980;28;20483;-65
2023/09/19 12:14:43;;;;;;;2.10;1.90;;;22.10;90.30;;;;;;4984526;28;20561;-65
2023/09/19 12:17:10;;;;;;;3.20;2.90;;;22.30;89.10;;;;;;4981383;28;21023;-65
2023/09/19 12:19:38;;;;;;;3.63;2.43;;;22.40;90.20;;;;;;4990990;28;20442;-65
2023/09/19 12:22:05;;;;;;;2.93;2.47;;;22.60;90.60;;;;;;4975065;28;20447;-65
2023/09/19 12:24:33;;;;;;;2.63;2.43;;;22.70;90.30;;;;;;4985554;28;20505;-65
2023/09/19 12:27:07;;;;;;;1.70;1.60;;;22.80;90.00;;;;;;4980476;28;21028;-65
2023/09/19 12:29:44;;;;;;;2.93;2.73;;;22.90;89.90;;;;;;4991223;28;20476;-65
2023/09/19 12:32:11;;;;;;;2.87;2.37;;;23.10;90.10;;;;;;4974641;28;20448;-63
2023/09/19 12:34:42;;;;;;;1.80;1.67;;;23.20;91.20;;;;;;4984917;28;20460;-63
2023/09/19 12:37:15;;;;;;;2.17;1.77;;;23.30;87.80;;;;;;4981801;28;20498;-63
2023/09/19 12:39:44;;;;;;;3.97;1.57;;;23.50;87.80;;;;;;4990762;28;20455;-63
2023/09/19 12:42:14;;;;;;;2.10;1.53;;;23.50;87.90;;;;;;4974297;28;20455;-63
2023/09/19 12:44:43;;;;;;;3.00;2.10;;;23.70;91.10;;;;;;4984046;28;20873;-64
2023/09/19 12:47:15;;;;;;;2.40;2.20;;;23.70;87.60;;;;;;4981590;28;20458;-63
2023/09/19 12:50:16;;;;;;;4.30;2.37;;;23.70;89.00;;;;;;4990441;28;20462;-63
2023/09/19 12:52:47;;;;;;;5.40;2.10;;;24.00;86.10;;;;;;4977605;28;20447;-63
2023/09/19 12:55:24;;;;;;;2.50;2.00;;;24.20;87.90;;;;;;4979129;28;21061;-63
2023/09/19 12:58:09;;;;;;;2.17;1.90;;;24.30;83.50;;;;;;4987474;28;21088;-63
2023/09/19 13:00:38;;;;;;;1.90;1.80;;;24.20;83.60;;;;;;4979697;28;20516;-63
2023/09/19 13:03:15;;;;;;;1.80;1.60;;;24.10;85.60;;;;;;4983516;28;20494;-63
2023/09/19 13:05:51;;;;;;;4.00;1.80;;;24.20;85.50;;;;;;4988647;28;20822;-63
2023/09/19 13:08:20;;;;;;;1.73;1.60;;;24.40;84.30;;;;;;4973931;28;20547;-63